Time;durP1;ratioP1;P1;durP2;ratioP2;P2;SDS_P1;SDS_P2;PMS_P1;PMS_P2;Temp;Humidity;BMP_temperature;BMP_pressure;BME280_temperature;BME280_humidity;BME280_pressure;Samples;Min_cycle;Max_cycle;Signal;HPM_P1;HPM_P2
2021/12/01 00:00:12;;;;;;;;;;;-0.70;79.60;;;;;;5010825;28;19921;-80
2021/12/01 00:02:40;;;;;;;;;;;-0.70;80.70;;;;;;5011598;28;19961;-81
2021/12/01 00:05:08;;;;;;;;;;;-0.70;80.00;;;;;;4998833;28;19921;-80
2021/12/01 00:07:36;;;;;;;;;;;-0.60;80.50;;;;;;5023485;28;20412;-79
2021/12/01 00:10:04;;;;;;;;;;;-0.70;79.80;;;;;;5013200;28;20365;-81
2021/12/01 00:12:31;;;;;;;;;;;-0.70;80.20;;;;;;5012201;28;19921;-79
2021/12/01 00:14:58;;;;;;;;;;;-0.70;80.60;;;;;;5012837;28;19929;-80
2021/12/01 00:17:25;;;;;;;;;;;-0.70;80.50;;;;;;5045710;28;19921;-79
2021/12/01 00:19:52;;;;;;;;;;;-0.80;81.30;;;;;;5012063;28;19921;-78
2021/12/01 00:22:20;;;;;;;;;;;-0.80;82.80;;;;;;5012679;28;20365;-81
2021/12/01 00:24:46;;;;;;;;;;;-0.80;81.70;;;;;;5012233;28;19921;-80
2021/12/01 00:27:13;;;;;;;;;;;-0.90;82.60;;;;;;5033294;28;19927;-79
2021/12/01 00:29:40;;;;;;;;;;;-0.90;82.70;;;;;;5012390;28;19932;-79
2021/12/01 00:32:07;;;;;;;;;;;-0.90;82.30;;;;;;5011597;28;19979;-80
2021/12/01 00:34:34;;;;;;;;;;;-0.90;82.90;;;;;;5011706;28;20370;-79
2021/12/01 00:37:01;;;;;;;;;;;-0.90;82.40;;;;;;5000282;28;19976;-81
2021/12/01 00:39:28;;;;;;;;;;;-0.80;82.30;;;;;;5012680;28;19921;-80
2021/12/01 00:41:56;;;;;;;;;;;-0.80;83.00;;;;;;5012773;28;19925;-78
2021/12/01 00:44:23;;;;;;;;;;;-0.80;82.50;;;;;;5013125;28;19928;-79
2021/12/01 00:46:55;;;;;;;;;;;-0.80;81.80;;;;;;5011824;28;19948;-80
2021/12/01 00:49:23;;;;;;;;;;;-0.80;81.50;;;;;;5012599;28;19975;-78
2021/12/01 00:51:49;;;;;;;;;;;-0.80;81.80;;;;;;4998336;28;19952;-81
2021/12/01 00:54:17;;;;;;;;;;;-0.80;82.10;;;;;;5018076;28;19929;-81
2021/12/01 00:56:44;;;;;;;;;;;-0.80;81.90;;;;;;5017713;28;20380;-81
2021/12/01 00:59:11;;;;;;;;;;;-0.80;81.70;;;;;;5048753;28;19932;-78
2021/12/01 01:01:38;;;;;;;;;;;-0.90;82.40;;;;;;5006382;28;19921;-81
2021/12/01 01:04:05;;;;;;;;;;;-0.90;82.00;;;;;;5047392;28;19921;-79
2021/12/01 01:06:32;;;;;;;;;;;-0.90;82.70;;;;;;5015311;28;19929;-79
2021/12/01 01:09:00;;;;;;;;;;;-0.80;82.80;;;;;;5008749;28;19968;-80
2021/12/01 01:17:00;;;;;;;;;;;-1.00;81.90;;;;;;5010720;28;19921;-78
2021/12/01 01:19:26;;;;;;;;;;;-1.10;82.90;;;;;;5014215;28;20392;-81
2021/12/01 01:21:55;;;;;;;;;;;-1.00;82.30;;;;;;5019732;28;20411;-81
2021/12/01 01:24:22;;;;;;;;;;;-1.10;82.50;;;;;;5019621;28;19921;-80
2021/12/01 01:26:49;;;;;;;;;;;-1.10;83.00;;;;;;5042241;28;19921;-80
2021/12/01 01:29:20;;;;;;;;;;;-1.00;83.00;;;;;;5014214;28;19921;-79
2021/12/01 01:31:52;;;;;;;;;;;-1.10;82.90;;;;;;5015655;28;20405;-81
2021/12/01 01:34:18;;;;;;;;;;;-1.00;82.50;;;;;;5011823;28;19957;-80
2021/12/01 01:36:45;;;;;;;;;;;-1.00;83.10;;;;;;5016241;28;20410;-78
2021/12/01 01:39:12;;;;;;;;;;;-1.00;83.90;;;;;;5014877;28;19925;-79
2021/12/01 01:41:39;;;;;;;;;;;-1.00;83.10;;;;;;5014951;28;19928;-80
2021/12/01 01:44:06;;;;;;;;;;;-1.00;82.70;;;;;;5015462;28;19944;-81
2021/12/01 01:46:34;;;;;;;;;;;-0.90;82.90;;;;;;5015360;28;19928;-79
2021/12/01 01:49:16;;;;;;;;;;;-1.00;83.00;;;;;;5014855;28;19925;-81
2021/12/01 01:51:44;;;;;;;;;;;-1.00;82.70;;;;;;5013259;28;19933;-80
2021/12/01 01:54:11;;;;;;;;;;;-1.00;82.70;;;;;;5018829;28;20454;-79
2021/12/01 01:56:38;;;;;;;;;;;-1.20;82.80;;;;;;5016828;28;20255;-79
2021/12/01 01:59:05;;;;;;;;;;;-1.20;82.90;;;;;;5047284;28;19996;-81
2021/12/01 02:04:12;;;;;;;;;;;-1.30;84.00;;;;;;5014198;28;19929;-81
2021/12/01 02:06:39;;;;;;;;;;;-1.30;83.50;;;;;;5014147;28;19925;-78
2021/12/01 02:09:06;;;;;;;;;;;-1.30;83.90;;;;;;5010277;28;19937;-78
2021/12/01 02:11:33;;;;;;;;;;;-1.20;83.60;;;;;;5005924;28;19922;-80
2021/12/01 02:14:00;;;;;;;;;;;-1.20;83.60;;;;;;5008549;28;20564;-80
2021/12/01 02:16:27;;;;;;;;;;;-1.20;84.20;;;;;;5014295;28;20377;-80
2021/12/01 02:18:54;;;;;;;;;;;-1.10;83.50;;;;;;5000959;28;19930;-80
2021/12/01 02:21:28;;;;;;;;;;;-1.10;83.40;;;;;;5041843;28;19925;-80
2021/12/01 02:23:56;;;;;;;;;;;-1.10;82.70;;;;;;5004030;28;19921;-80
2021/12/01 02:26:24;;;;;;;;;;;-1.10;82.60;;;;;;5014028;28;19921;-81
2021/12/01 02:28:53;;;;;;;;;;;-1.10;82.40;;;;;;5016255;28;20404;-79
2021/12/01 02:31:21;;;;;;;;;;;-1.20;82.50;;;;;;5013923;28;19968;-81
2021/12/01 02:33:48;;;;;;;;;;;-1.20;83.60;;;;;;5012345;28;20019;-82
2021/12/01 02:36:16;;;;;;;;;;;-1.30;82.60;;;;;;5014465;28;20437;-80
2021/12/01 02:38:44;;;;;;;;;;;-1.30;83.20;;;;;;5010443;28;19952;-78
2021/12/01 02:41:10;;;;;;;;;;;-1.30;83.20;;;;;;5002513;28;19926;-78
2021/12/01 02:43:38;;;;;;;;;;;-1.40;84.10;;;;;;5046257;28;19928;-78
2021/12/01 02:46:06;;;;;;;;;;;-1.40;83.60;;;;;;5003295;28;20397;-79
2021/12/01 02:48:41;;;;;;;;;;;-1.40;84.30;;;;;;5013190;28;20042;-79
2021/12/01 02:51:09;;;;;;;;;;;-1.40;84.10;;;;;;5013807;28;20393;-81
2021/12/01 02:53:37;;;;;;;;;;;-1.40;83.80;;;;;;5012043;28;19921;-79
2021/12/01 02:56:04;;;;;;;;;;;-1.40;83.80;;;;;;5015570;28;19921;-79
2021/12/01 02:58:32;;;;;;;;;;;-1.40;83.20;;;;;;5046278;28;19929;-80
2021/12/01 03:01:04;;;;;;;;;;;-1.40;83.10;;;;;;5013808;28;19921;-80
2021/12/01 03:03:31;;;;;;;;;;;-1.40;83.20;;;;;;5012857;28;19937;-82
2021/12/01 03:05:58;;;;;;;;;;;-1.30;84.40;;;;;;5046574;28;19921;-78
2021/12/01 03:08:25;;;;;;;;;;;-1.30;84.10;;;;;;5014259;28;20370;-78
2021/12/01 03:10:53;;;;;;;;;;;-1.30;84.20;;;;;;5013318;28;19921;-80
2021/12/01 03:13:20;;;;;;;;;;;-1.30;83.80;;;;;;5046067;28;20385;-78
2021/12/01 03:15:47;;;;;;;;;;;-1.30;83.60;;;;;;5008475;28;19921;-81
2021/12/01 03:18:15;;;;;;;;;;;-1.30;82.90;;;;;;5013803;28;19972;-79
2021/12/01 03:20:44;;;;;;;;;;;-1.40;83.20;;;;;;5013328;28;19979;-81
2021/12/01 03:23:11;;;;;;;;;;;-1.40;82.80;;;;;;5013306;28;19921;-78
2021/12/01 03:25:39;;;;;;;;;;;-1.50;83.50;;;;;;5013116;28;19929;-78
2021/12/01 03:28:06;;;;;;;;;;;-1.50;83.50;;;;;;5017750;28;19959;-80
2021/12/01 03:30:34;;;;;;;;;;;-1.50;83.40;;;;;;5013730;28;20285;-78
2021/12/01 03:33:02;;;;;;;;;;;-1.50;85.80;;;;;;5013109;28;19928;-81
2021/12/01 03:35:28;;;;;;;;;;;-1.60;85.50;;;;;;5012772;28;19921;-79
2021/12/01 03:37:55;;;;;;;;;;;-1.60;84.40;;;;;;5005822;28;19921;-78
2021/12/01 03:40:22;;;;;;;;;;;-1.50;84.70;;;;;;5020723;28;19964;-78
2021/12/01 03:42:50;;;;;;;;;;;-1.50;85.90;;;;;;5015805;28;20346;-80
2021/12/01 03:45:17;;;;;;;;;;;-1.50;85.20;;;;;;5007173;28;20008;-78
2021/12/01 03:47:44;;;;;;;;;;;-1.50;84.70;;;;;;4998302;28;19922;-79
2021/12/01 03:50:11;;;;;;;;;;;-1.50;84.30;;;;;;5012496;28;19925;-78
2021/12/01 03:52:38;;;;;;;;;;;-1.60;83.40;;;;;;5009143;28;20361;-79
2021/12/01 03:55:06;;;;;;;;;;;-1.60;83.70;;;;;;5010616;28;19929;-79
2021/12/01 03:57:33;;;;;;;;;;;-1.70;83.90;;;;;;5014928;28;19928;-80
2021/12/01 04:00:00;;;;;;;;;;;-1.70;83.70;;;;;;5012352;28;19929;-81
2021/12/01 04:02:27;;;;;;;;;;;-1.70;83.50;;;;;;5012660;28;19921;-82
2021/12/01 04:04:54;;;;;;;;;;;-1.70;83.70;;;;;;5010320;28;19973;-78
2021/12/01 04:07:20;;;;;;;;;;;-1.70;83.40;;;;;;5010774;28;19922;-78
2021/12/01 04:09:47;;;;;;;;;;;-1.70;84.10;;;;;;5003877;28;19922;-78
2021/12/01 04:12:14;;;;;;;;;;;-1.70;84.40;;;;;;5012175;28;19925;-80
2021/12/01 04:14:41;;;;;;;;;;;-1.70;83.40;;;;;;5012222;28;19932;-80
2021/12/01 04:17:08;;;;;;;;;;;-1.70;84.20;;;;;;5011800;28;19921;-81
2021/12/01 04:19:35;;;;;;;;;;;-1.70;83.20;;;;;;5012091;28;19925;-81
2021/12/01 04:22:02;;;;;;;;;;;-1.70;83.40;;;;;;5050073;28;19925;-79
2021/12/01 04:24:30;;;;;;;;;;;-1.70;83.30;;;;;;5008011;28;19929;-81
2021/12/01 04:26:57;;;;;;;;;;;-1.70;83.90;;;;;;5016228;28;19921;-81
2021/12/01 04:29:25;;;;;;;;;;;-1.70;83.70;;;;;;5030866;28;20293;-78
2021/12/01 04:31:52;;;;;;;;;;;-1.60;84.10;;;;;;5029816;28;19948;-78
2021/12/01 04:34:22;;;;;;;;;;;-1.60;83.50;;;;;;5015723;28;19921;-78
2021/12/01 04:36:50;;;;;;;;;;;-1.70;83.70;;;;;;5016166;28;19921;-80
2021/12/01 04:39:18;;;;;;;;;;;-1.80;82.90;;;;;;5015575;28;19921;-79
2021/12/01 04:42:04;;;;;;;;;;;-1.80;83.10;;;;;;5010056;28;19928;-81
2021/12/01 04:44:31;;;;;;;;;;;-1.90;83.00;;;;;;5018036;28;19922;-80
2021/12/01 04:47:01;;;;;;;;;;;-1.90;83.20;;;;;;5016501;28;19928;-78
2021/12/01 04:49:29;;;;;;;;;;;-1.90;83.40;;;;;;5017939;28;19921;-79
2021/12/01 04:52:01;;;;;;;;;;;-2.00;82.70;;;;;;5016833;28;19925;-82
2021/12/01 04:54:28;;;;;;;;;;;-2.00;83.10;;;;;;5013109;28;19921;-78
2021/12/01 04:56:54;;;;;;;;;;;-2.00;82.50;;;;;;5016563;28;19948;-79
2021/12/01 04:59:22;;;;;;;;;;;-2.00;83.50;;;;;;5024551;28;19972;-80
2021/12/01 05:01:52;;;;;;;;;;;-2.00;82.80;;;;;;5016454;28;19928;-78
2021/12/01 05:04:19;;;;;;;;;;;-2.00;82.60;;;;;;5018201;28;20362;-79
2021/12/01 05:06:46;;;;;;;;;;;-2.10;83.40;;;;;;5018426;28;19948;-79
2021/12/01 05:09:13;;;;;;;;;;;-2.10;84.20;;;;;;5018481;28;19924;-82
2021/12/01 05:11:40;;;;;;;;;;;-2.20;84.30;;;;;;5021426;28;19921;-80
2021/12/01 05:14:13;;;;;;;;;;;-2.10;85.20;;;;;;5016095;28;20420;-80
2021/12/01 05:16:41;;;;;;;;;;;-2.20;86.00;;;;;;5021209;28;19975;-80
2021/12/01 05:19:10;;;;;;;;;;;-2.10;88.20;;;;;;5020386;28;19921;-81
2021/12/01 05:21:38;;;;;;;;;;;-2.10;87.30;;;;;;4999519;28;20337;-78
2021/12/01 05:24:05;;;;;;;;;;;-2.10;86.20;;;;;;5014838;28;19956;-77
2021/12/01 05:26:32;;;;;;;;;;;-2.10;85.50;;;;;;5023103;28;19925;-80
2021/12/01 05:29:01;;;;;;;;;;;-2.10;85.30;;;;;;5016532;28;19929;-81
2021/12/01 05:31:28;;;;;;;;;;;-2.10;84.70;;;;;;5017071;28;19927;-80
2021/12/01 05:33:55;;;;;;;;;;;-2.00;84.50;;;;;;5018250;28;20008;-80
2021/12/01 05:36:22;;;;;;;;;;;-2.00;83.90;;;;;;5014711;28;19921;-78
2021/12/01 05:38:49;;;;;;;;;;;-2.00;83.80;;;;;;5016300;28;19987;-81
2021/12/01 05:41:17;;;;;;;;;;;-2.00;85.30;;;;;;5019083;28;19971;-78
2021/12/01 05:43:44;;;;;;;;;;;-2.00;85.80;;;;;;5017076;28;19928;-80
2021/12/01 05:46:11;;;;;;;;;;;-2.00;84.70;;;;;;5014585;28;20374;-78
2021/12/01 05:48:38;;;;;;;;;;;-2.10;84.00;;;;;;5020862;28;19927;-80
2021/12/01 05:51:05;;;;;;;;;;;-2.20;86.40;;;;;;5047184;28;19921;-81
2021/12/01 05:53:36;;;;;;;;;;;-2.30;86.40;;;;;;5017192;28;19925;-82
2021/12/01 05:56:03;;;;;;;;;;;-2.30;87.10;;;;;;5020020;28;19926;-79
2021/12/01 05:58:30;;;;;;;;;;;-2.30;86.50;;;;;;5045161;28;19925;-81
2021/12/01 06:00:57;;;;;;;;;;;-2.30;87.40;;;;;;5014556;28;19921;-79
2021/12/01 06:03:24;;;;;;;;;;;-2.20;87.20;;;;;;5011872;28;19925;-81
2021/12/01 06:05:51;;;;;;;;;;;-2.20;86.70;;;;;;5021840;28;19979;-79
2021/12/01 06:08:17;;;;;;;;;;;-2.20;88.10;;;;;;5015071;28;19953;-79
2021/12/01 06:10:45;;;;;;;;;;;-2.30;87.50;;;;;;5016704;28;20377;-79
2021/12/01 06:13:14;;;;;;;;;;;-2.30;86.90;;;;;;5013242;28;20358;-80
2021/12/01 06:15:41;;;;;;;;;;;-2.20;86.50;;;;;;5005409;28;20434;-79
2021/12/01 06:18:08;;;;;;;;;;;-2.20;86.30;;;;;;5016439;28;20267;-79
2021/12/01 06:20:35;;;;;;;;;;;-2.20;87.20;;;;;;5015140;28;20007;-80
2021/12/01 06:23:01;;;;;;;;;;;-2.20;87.30;;;;;;5020624;28;19921;-80
2021/12/01 06:25:28;;;;;;;;;;;-2.20;87.40;;;;;;5015566;28;19922;-80
2021/12/01 06:27:56;;;;;;;;;;;-2.30;86.80;;;;;;5048851;28;19921;-78
2021/12/01 06:30:24;;;;;;;;;;;-2.30;86.20;;;;;;5013047;28;19925;-79
2021/12/01 06:32:51;;;;;;;;;;;-2.30;86.70;;;;;;5021788;28;20431;-78
2021/12/01 06:35:18;;;;;;;;;;;-2.30;86.70;;;;;;5010416;28;19972;-80
2021/12/01 06:37:46;;;;;;;;;;;-2.20;86.30;;;;;;5012134;28;19976;-80
2021/12/01 06:40:13;;;;;;;;;;;-2.30;86.20;;;;;;5006350;28;19921;-81
2021/12/01 06:42:40;;;;;;;;;;;-2.30;85.80;;;;;;5015485;28;19921;-79
2021/12/01 06:45:08;;;;;;;;;;;-2.30;87.90;;;;;;5016940;28;19921;-80
2021/12/01 06:47:35;;;;;;;;;;;-2.30;88.60;;;;;;5016839;28;19932;-79
2021/12/01 06:50:03;;;;;;;;;;;-2.30;88.20;;;;;;5020579;28;20369;-79
2021/12/01 06:52:30;;;;;;;;;;;-2.20;88.00;;;;;;5016134;28;19921;-79
2021/12/01 06:54:58;;;;;;;;;;;-2.20;87.60;;;;;;5008568;28;19921;-80
2021/12/01 06:57:25;;;;;;;;;;;-2.20;87.10;;;;;;5010226;28;19925;-80
2021/12/01 06:59:51;;;;;;;;;;;-2.20;87.80;;;;;;5012047;28;19932;-78
2021/12/01 07:02:18;;;;;;;;;;;-2.20;87.70;;;;;;5019691;28;19922;-80
2021/12/01 07:04:46;;;;;;;;;;;-2.20;87.60;;;;;;5016171;28;19921;-79
2021/12/01 07:07:13;;;;;;;;;;;-2.20;87.10;;;;;;5017506;28;19920;-80
2021/12/01 07:09:40;;;;;;;;;;;-2.20;87.50;;;;;;5019165;28;19926;-79
2021/12/01 07:12:07;;;;;;;;;;;-2.20;86.90;;;;;;4976406;28;19921;-79
2021/12/01 07:14:34;;;;;;;;;;;-2.20;86.60;;;;;;5040113;28;19925;-78
2021/12/01 07:17:00;;;;;;;;;;;-2.20;86.30;;;;;;5013095;28;19922;-81
2021/12/01 07:19:27;;;;;;;;;;;-2.10;86.50;;;;;;5047277;28;20008;-80
2021/12/01 07:21:54;;;;;;;;;;;-2.10;86.50;;;;;;5017378;28;19944;-81
2021/12/01 07:24:21;;;;;;;;;;;-2.10;87.60;;;;;;5015422;28;19921;-79
2021/12/01 07:26:48;;;;;;;;;;;-2.00;88.40;;;;;;5018227;28;20407;-81
2021/12/01 07:29:17;;;;;;;;;;;-1.90;87.70;;;;;;5016312;28;19925;-79
2021/12/01 07:31:44;;;;;;;;;;;-1.90;88.10;;;;;;5014098;28;19928;-80
2021/12/01 07:34:11;;;;;;;;;;;-1.80;88.50;;;;;;5013348;28;20375;-79
2021/12/01 07:36:38;;;;;;;;;;;-1.70;88.40;;;;;;5013779;28;19925;-79
2021/12/01 07:39:05;;;;;;;;;;;-1.30;87.90;;;;;;5014260;28;20373;-79
2021/12/01 07:41:32;;;;;;;;;;;-0.60;86.80;;;;;;5015793;28;19975;-79
2021/12/01 07:43:58;;;;;;;;;;;-0.10;84.80;;;;;;5012178;28;20397;-79
2021/12/01 07:46:25;;;;;;;;;;;0.30;83.10;;;;;;5019826;28;19983;-79
2021/12/01 07:48:52;;;;;;;;;;;0.60;81.20;;;;;;5017745;28;19964;-79
2021/12/01 07:51:19;;;;;;;;;;;0.70;80.30;;;;;;5014743;28;20282;-79
2021/12/01 07:53:46;;;;;;;;;;;0.90;79.80;;;;;;5013001;28;19991;-81
2021/12/01 07:56:13;;;;;;;;;;;1.00;79.20;;;;;;5012976;28;20301;-79
2021/12/01 07:58:39;;;;;;;;;;;1.20;78.40;;;;;;5014452;28;19929;-79
2021/12/01 08:01:07;;;;;;;37.17;20.65;;;1.30;78.30;;;;;;5011357;28;20328;-79
2021/12/01 08:03:34;;;;;;;37.25;20.27;;;1.40;77.00;;;;;;5030262;28;20046;-79
2021/12/01 08:06:01;;;;;;;32.85;20.23;;;1.50;76.80;;;;;;5013675;28;20404;-79
2021/12/01 08:08:29;;;;;;;36.08;19.23;;;1.50;78.20;;;;;;5018847;28;20505;-79
2021/12/01 08:10:56;;;;;;;29.35;16.90;;;1.60;77.20;;;;;;5022154;28;20042;-79
2021/12/01 08:13:23;;;;;;;29.25;16.92;;;1.70;77.40;;;;;;5017890;28;20406;-79
2021/12/01 08:15:51;;;;;;;32.28;19.08;;;1.90;77.60;;;;;;4999805;28;20101;-80
2021/12/01 08:18:19;;;;;;;40.00;22.52;;;2.10;76.20;;;;;;5039658;28;20101;-79
2021/12/01 08:20:46;;;;;;;41.17;24.10;;;2.30;75.50;;;;;;5026154;28;20540;-81
2021/12/01 08:23:13;;;;;;;35.72;20.92;;;2.40;75.60;;;;;;5026379;28;20041;-79
2021/12/01 08:25:41;;;;;;;33.92;21.33;;;2.60;74.40;;;;;;5018630;28;20518;-81
2021/12/01 08:28:08;;;;;;;29.38;18.10;;;2.80;74.50;;;;;;5019133;28;20501;-79
2021/12/01 08:30:35;;;;;;;28.30;17.05;;;2.90;74.60;;;;;;5015500;28;20070;-80
2021/12/01 08:33:02;;;;;;;26.92;15.85;;;3.10;74.50;;;;;;5027084;28;20045;-79
2021/12/01 08:35:29;;;;;;;28.80;16.38;;;3.20;74.50;;;;;;5024847;28;20061;-78
2021/12/01 08:37:56;;;;;;;29.23;15.85;;;3.30;75.00;;;;;;5018926;28;20056;-81
2021/12/01 08:40:23;;;;;;;26.42;16.80;;;3.10;73.60;;;;;;5016526;28;20046;-79
2021/12/01 08:42:50;;;;;;;29.38;18.08;;;3.00;73.70;;;;;;5015450;28;20049;-81
2021/12/01 08:45:18;;;;;;;28.48;16.85;;;3.10;74.60;;;;;;5018697;28;20088;-80
2021/12/01 08:47:45;;;;;;;36.22;23.10;;;3.20;74.60;;;;;;5020685;28;20054;-78
2021/12/01 08:50:12;;;;;;;38.95;22.58;;;3.20;74.90;;;;;;5017304;28;20490;-79
2021/12/01 08:52:40;;;;;;;52.40;25.55;;;3.10;74.00;;;;;;5018213;28;20077;-78
2021/12/01 08:55:08;;;;;;;45.67;25.80;;;3.00;74.50;;;;;;5016046;28;20046;-80
2021/12/01 08:57:36;;;;;;;33.47;18.38;;;2.90;74.50;;;;;;5015281;28;20453;-79
2021/12/01 09:00:07;;;;;;;24.58;14.77;;;2.80;74.70;;;;;;5022419;28;20046;-81
2021/12/01 09:02:34;;;;;;;22.10;13.25;;;2.60;76.00;;;;;;5013779;28;20049;-80
2021/12/01 09:05:01;;;;;;;20.30;12.80;;;2.60;76.70;;;;;;5012326;28;20061;-80
2021/12/01 09:07:28;;;;;;;22.33;13.75;;;2.60;76.50;;;;;;5010773;28;20057;-79
2021/12/01 09:09:55;;;;;;;23.33;13.32;;;2.60;75.90;;;;;;5009136;28;20053;-78
2021/12/01 09:12:22;;;;;;;24.77;14.88;;;2.60;76.00;;;;;;5013540;28;20042;-81
2021/12/01 09:14:52;;;;;;;20.33;13.50;;;2.60;76.40;;;;;;5019786;28;20057;-79
2021/12/01 09:17:19;;;;;;;20.38;13.82;;;2.60;76.60;;;;;;5015505;28;20128;-79
2021/12/01 09:19:46;;;;;;;24.00;15.88;;;2.70;77.60;;;;;;5006026;28;20482;-79
2021/12/01 09:22:13;;;;;;;25.90;16.30;;;2.90;77.50;;;;;;5010756;28;20049;-81
2021/12/01 09:24:40;;;;;;;23.17;14.10;;;3.00;76.20;;;;;;5016121;28;20050;-81
2021/12/01 09:27:07;;;;;;;21.45;16.05;;;3.10;75.80;;;;;;5025945;28;20405;-81
2021/12/01 09:29:34;;;;;;;20.88;15.32;;;3.30;76.40;;;;;;5010795;28;20407;-79
2021/12/01 09:32:02;;;;;;;21.02;15.02;;;3.60;76.40;;;;;;5014926;28;20425;-81
2021/12/01 09:34:29;;;;;;;21.48;15.15;;;3.80;74.10;;;;;;5022411;28;20416;-79
2021/12/01 09:36:57;;;;;;;17.83;13.68;;;4.00;74.10;;;;;;5018776;28;20450;-81
2021/12/01 09:39:25;;;;;;;20.58;14.95;;;4.30;73.30;;;;;;5014871;28;20911;-80
2021/12/01 09:41:52;;;;;;;17.75;13.90;;;4.40;71.80;;;;;;5011962;28;20412;-81
2021/12/01 09:44:19;;;;;;;19.90;14.38;;;4.70;72.20;;;;;;5024187;28;20414;-79
2021/12/01 09:46:46;;;;;;;19.15;14.57;;;4.90;70.90;;;;;;5013773;28;20416;-79
2021/12/01 09:49:13;;;;;;;19.08;14.05;;;5.10;70.50;;;;;;5013471;28;20462;-81
2021/12/01 09:51:40;;;;;;;17.92;14.07;;;5.30;69.70;;;;;;5015427;28;20415;-79
2021/12/01 09:54:07;;;;;;;21.60;14.65;;;5.50;69.90;;;;;;5013698;28;20423;-79
2021/12/01 09:56:35;;;;;;;17.67;13.25;;;5.60;69.10;;;;;;5024516;28;20499;-79
2021/12/01 09:59:02;;;;;;;16.10;11.55;;;5.80;69.10;;;;;;5023843;28;20404;-79
2021/12/01 10:01:29;;;;;;;15.93;10.45;;;6.00;68.10;;;;;;5017024;28;20877;-79
2021/12/01 10:03:58;;;;;;;14.43;10.75;;;6.20;66.00;;;;;;5012490;28;20458;-78
2021/12/01 10:06:29;;;;;;;14.45;10.55;;;6.40;65.30;;;;;;5015665;28;20961;-80
2021/12/01 10:09:03;;;;;;;15.00;11.50;;;6.50;65.30;;;;;;5036058;28;20436;-81
2021/12/01 10:11:37;;;;;;;16.13;11.75;;;6.70;63.90;;;;;;5011939;28;20931;-80
2021/12/01 10:14:07;;;;;;;13.27;10.90;;;6.90;63.70;;;;;;5012396;28;20422;-80
2021/12/01 10:16:39;;;;;;;13.77;10.90;;;7.00;62.80;;;;;;5005793;28;20436;-80
2021/12/01 10:19:11;;;;;;;14.93;10.38;;;7.10;63.40;;;;;;5013259;28;20410;-81
2021/12/01 10:21:41;;;;;;;13.50;10.47;;;7.30;62.60;;;;;;5013198;28;20796;-79
2021/12/01 10:24:11;;;;;;;14.23;10.90;;;7.40;62.40;;;;;;5012425;28;20461;-80
2021/12/01 10:26:43;;;;;;;19.77;14.95;;;7.60;63.30;;;;;;5014929;28;20408;-81
2021/12/01 10:29:13;;;;;;;17.33;13.02;;;7.80;62.10;;;;;;5000340;28;20951;-80
2021/12/01 10:31:43;;;;;;;20.43;13.53;;;8.00;62.40;;;;;;5012470;28;20410;-80
2021/12/01 10:34:20;;;;;;;24.50;19.13;;;8.10;61.00;;;;;;5014778;28;20408;-80
2021/12/01 10:36:50;;;;;;;22.80;16.63;;;8.20;61.40;;;;;;5004184;28;20424;-78
2021/12/01 10:39:17;;;;;;;17.67;12.73;;;8.30;61.60;;;;;;5007810;28;20799;-81
2021/12/01 10:41:44;;;;;;;23.55;16.88;;;8.60;62.00;;;;;;5004365;28;20466;-79
2021/12/01 10:44:17;;;;;;;11.52;8.23;;;8.90;61.40;;;;;;5003249;28;20406;-81
2021/12/01 10:46:47;;;;;;;8.82;6.85;;;9.20;61.60;;;;;;5013450;28;20411;-79
2021/12/01 10:49:15;;;;;;;10.20;5.53;;;9.30;61.80;;;;;;5020042;28;20394;-79
2021/12/01 10:51:44;;;;;;;6.93;4.50;;;9.40;62.40;;;;;;5006282;28;20396;-80
2021/12/01 10:54:20;;;;;;;10.38;4.82;;;9.50;63.10;;;;;;5010345;28;20400;-79
2021/12/01 10:57:07;;;;;;;9.77;5.57;;;9.50;63.20;;;;;;5012064;28;20431;-81
2021/12/01 10:59:44;;;;;;;8.95;4.00;;;9.60;63.70;;;;;;5011825;28;20398;-81
2021/12/01 11:02:12;;;;;;;9.15;3.22;;;9.70;63.90;;;;;;4999109;28;20454;-80
2021/12/01 11:04:44;;;;;;;5.65;2.83;;;9.90;64.20;;;;;;5013724;28;20400;-81
2021/12/01 11:07:31;;;;;;;5.97;2.75;;;10.00;64.20;;;;;;5013877;28;20816;-81
2021/12/01 11:10:19;;;;;;;6.88;2.85;;;10.10;64.20;;;;;;4995229;28;20505;-80
2021/12/01 11:12:56;;;;;;;6.72;2.90;;;10.20;64.20;;;;;;5019362;28;20416;-79
2021/12/01 11:15:26;;;;;;;5.87;2.90;;;10.30;63.90;;;;;;5007911;28;20823;-81
2021/12/01 11:17:54;;;;;;;5.50;3.47;;;10.30;63.80;;;;;;5011690;28;20787;-79
2021/12/01 11:20:34;;;;;;;6.43;3.40;;;10.40;63.60;;;;;;5015984;28;20404;-81
2021/12/01 11:23:35;;;;;;;8.30;4.82;;;10.40;63.10;;;;;;5011748;28;20918;-80
2021/12/01 11:26:09;;;;;;;9.13;6.97;;;10.50;62.20;;;;;;5015474;28;20474;-79
2021/12/01 11:28:43;;;;;;;17.42;14.10;;;10.40;61.80;;;;;;5015535;28;20408;-81
2021/12/01 11:31:17;;;;;;;20.63;15.45;;;10.00;59.50;;;;;;5013381;28;20431;-80
2021/12/01 11:33:44;;;;;;;18.77;14.82;;;9.60;58.00;;;;;;5015369;28;20906;-81
2021/12/01 11:36:13;;;;;;;;;;;9.20;58.50;;;;;;5014825;28;20461;-81
2021/12/01 11:38:41;;;;;;;;;;;8.80;58.20;;;;;;5013086;28;19932;-79
2021/12/01 11:41:09;;;;;;;;;;;8.40;59.10;;;;;;5015842;28;19921;-80
2021/12/01 11:43:37;;;;;;;;;;;8.20;60.20;;;;;;5013839;28;20285;-79
2021/12/01 11:46:05;;;;;;;;;;;8.00;61.50;;;;;;5054223;28;20341;-81
2021/12/01 11:48:34;;;;;;;;;;;7.90;62.50;;;;;;5018359;28;19941;-80
2021/12/01 11:51:06;;;;;;;;;;;7.90;62.30;;;;;;5013247;28;20358;-80
2021/12/01 11:53:37;;;;;;;;;;;7.80;62.90;;;;;;5013017;28;19925;-79
2021/12/01 11:56:04;;;;;;;;;;;7.80;63.20;;;;;;5012800;28;20400;-81
2021/12/01 11:58:40;;;;;;;;;;;7.80;62.50;;;;;;5029548;28;19980;-80
2021/12/01 12:01:27;;;;;;;;;;;7.70;61.00;;;;;;5017694;28;19929;-78
2021/12/01 12:03:54;;;;;;;;;;;7.50;60.70;;;;;;5026764;28;19930;-81
2021/12/01 12:06:20;;;;;;;;;;;7.40;61.20;;;;;;5017504;28;19928;-80
2021/12/01 12:08:53;;;;;;;;;;;7.30;60.70;;;;;;5014260;28;20374;-80
2021/12/01 12:11:36;;;;;;;;;;;7.30;60.80;;;;;;5048098;28;19975;-81
2021/12/01 12:14:03;;;;;;;;;;;7.20;59.80;;;;;;5016397;28;19921;-80
2021/12/01 12:16:30;;;;;;;;;;;7.20;59.20;;;;;;5015365;28;19934;-81
2021/12/01 12:18:59;;;;;;;;;;;7.20;59.70;;;;;;5013104;28;19930;-80
2021/12/01 12:21:50;;;;;;;;;;;7.10;59.40;;;;;;5003276;28;19928;-80
2021/12/01 12:24:19;;;;;;;;;;;7.10;59.50;;;;;;5021226;28;19925;-81
2021/12/01 12:26:48;;;;;;;;;;;7.10;59.50;;;;;;5020139;28;19933;-80
2021/12/01 12:29:17;;;;;;;;;;;7.00;59.30;;;;;;5012938;28;19944;-81
2021/12/01 12:31:45;;;;;;;;;;;7.00;59.60;;;;;;5006335;28;19972;-80
2021/12/01 12:34:16;;;;;;;;;;;7.00;59.30;;;;;;5018940;28;19971;-81
2021/12/01 12:36:43;;;;;;;;;;;7.00;59.50;;;;;;5020352;28;19925;-80
2021/12/01 12:39:13;;;;;;;;;;;7.10;59.70;;;;;;5009556;28;20358;-81
2021/12/01 12:41:55;;;;;;;;;;;7.10;59.70;;;;;;5016304;28;19926;-81
2021/12/01 12:44:28;;;;;;;;;;;7.10;59.60;;;;;;5018717;28;20440;-81
2021/12/01 12:47:05;;;;;;;;;;;7.10;58.60;;;;;;5021672;28;20440;-80
2021/12/01 12:49:42;;;;;;;;;;;7.10;58.40;;;;;;5021368;28;20393;-79
2021/12/01 12:52:28;;;;;;;;;;;7.10;58.40;;;;;;5015783;28;19929;-79
2021/12/01 12:54:57;;;;;;;;;;;7.10;58.90;;;;;;5021683;28;20365;-80
2021/12/01 12:57:25;;;;;;;;;;;7.20;58.40;;;;;;5010990;28;19921;-79
2021/12/01 13:00:11;;;;;;;;;;;7.20;57.50;;;;;;5053790;28;20366;-79
2021/12/01 13:02:37;;;;;;;;;;;7.10;57.70;;;;;;5018937;28;20392;-80
2021/12/01 13:05:05;;;;;;;;;;;7.00;57.10;;;;;;5017294;28;20369;-79
2021/12/01 13:07:48;;;;;;;;;;;7.00;57.80;;;;;;5021314;28;20309;-80
2021/12/01 13:10:15;;;;;;;;;;;7.00;56.50;;;;;;5018856;28;19925;-78
2021/12/01 13:13:02;;;;;;;;;;;7.00;57.40;;;;;;5002400;28;19922;-81
2021/12/01 13:15:34;;;;;;;;;;;7.00;56.20;;;;;;5000480;28;19952;-81
2021/12/01 13:18:01;;;;;;;;;;;7.00;56.00;;;;;;5022431;28;19936;-80
2021/12/01 13:20:32;;;;;;;;;;;7.00;56.00;;;;;;5020241;28;19921;-79
2021/12/01 13:23:02;;;;;;;;;;;7.00;56.20;;;;;;5016213;28;20016;-79
2021/12/01 13:25:29;;;;;;;;;;;7.00;56.20;;;;;;5017869;28;19921;-79
2021/12/01 13:27:56;;;;;;;;;;;7.00;56.20;;;;;;5017736;28;20370;-80
2021/12/01 13:30:23;;;;;;;;;;;7.00;56.70;;;;;;5016243;28;19928;-79
2021/12/01 13:33:10;;;;;;;;;;;7.00;56.80;;;;;;5011516;28;19921;-79
2021/12/01 13:35:38;;;;;;;;;;;7.10;56.20;;;;;;5048281;28;20331;-80
2021/12/01 13:38:05;;;;;;;;;;;7.10;55.70;;;;;;5013490;28;19979;-79
2021/12/01 13:40:36;;;;;;;;;;;7.10;56.20;;;;;;5015020;28;19925;-78
2021/12/01 13:43:19;;;;;;;;;;;7.10;55.70;;;;;;5014624;28;19925;-79
2021/12/01 13:45:53;;;;;;;;;;;7.10;55.50;;;;;;5018606;28;19927;-80
2021/12/01 13:48:20;;;;;;;;;;;7.00;55.70;;;;;;5017208;28;19933;-79
2021/12/01 13:50:47;;;;;;;;;;;7.00;55.90;;;;;;5016546;28;19925;-81
2021/12/01 13:53:14;;;;;;;;;;;7.00;56.10;;;;;;5018445;28;19920;-80
2021/12/01 13:55:41;;;;;;;;;;;7.10;56.20;;;;;;5017269;28;20349;-80
2021/12/01 13:58:10;;;;;;;;;;;7.10;56.90;;;;;;5021741;28;19921;-82
2021/12/01 14:00:37;;;;;;;;;;;7.10;56.20;;;;;;5021537;28;19936;-81
2021/12/01 14:03:05;;;;;;;;;;;7.10;56.70;;;;;;5018981;28;19922;-81
2021/12/01 14:05:34;;;;;;;;;;;7.20;57.40;;;;;;5017682;28;19966;-80
2021/12/01 14:08:02;;;;;;;;;;;7.20;56.90;;;;;;5018861;28;19922;-81